createdAt,value
2023-01-21T00:02:01.520Z,48.30
2023-01-21T00:04:29.803Z,49.10
2023-01-21T00:06:57.990Z,50.60
2023-01-21T00:09:26.302Z,49.20
2023-01-21T00:11:54.708Z,45.10
2023-01-21T00:14:23.003Z,51.40
2023-01-21T00:16:51.430Z,56.00
2023-01-21T00:19:19.883Z,47.50
2023-01-21T00:21:48.219Z,46.30
2023-01-21T00:24:16.802Z,52.00
2023-01-21T00:26:45.665Z,53.80
2023-01-21T00:29:14.209Z,51.80
2023-01-21T00:31:42.661Z,51.40
2023-01-21T00:34:11.456Z,51.10
2023-01-21T00:36:39.746Z,53.40
2023-01-21T00:39:08.189Z,51.10
2023-01-21T00:41:37.075Z,49.60
2023-01-21T00:44:06.400Z,45.00
2023-01-21T00:46:35.134Z,51.60
2023-01-21T00:49:03.807Z,50.40
2023-01-21T00:51:32.431Z,49.60
2023-01-21T00:54:00.981Z,45.30
2023-01-21T00:56:29.556Z,47.70
2023-01-21T00:58:58.307Z,54.00
2023-01-21T01:01:29.600Z,55.60
2023-01-21T01:03:57.823Z,50.90
2023-01-21T01:06:26.104Z,58.50
2023-01-21T01:08:57.669Z,54.20
2023-01-21T01:11:27.149Z,55.70
2023-01-21T01:13:56.012Z,45.00
2023-01-21T01:16:24.603Z,54.70
2023-01-21T01:18:52.996Z,58.00
2023-01-21T01:21:22.633Z,55.10
2023-01-21T01:23:52.973Z,62.60
2023-01-21T01:26:22.131Z,55.30
2023-01-21T01:28:50.595Z,59.20
2023-01-21T01:31:20.798Z,51.40
2023-01-21T01:33:49.792Z,54.20
2023-01-21T01:36:19.981Z,57.70
2023-01-21T01:38:48.404Z,56.10
2023-01-21T01:41:19.054Z,60.10
2023-01-21T01:43:54.434Z,56.90
2023-01-21T01:46:24.293Z,55.90
2023-01-21T01:48:58.774Z,58.70
2023-01-21T01:51:34.295Z,57.40
2023-01-21T01:54:04.154Z,59.40
2023-01-21T01:56:34.846Z,63.60
2023-01-21T01:59:03.480Z,65.60
2023-01-21T02:01:31.852Z,60.90
2023-01-21T02:04:06.242Z,55.30
2023-01-21T02:06:35.169Z,54.50
2023-01-21T02:09:03.820Z,64.40
2023-01-21T02:11:32.133Z,60.20
2023-01-21T02:14:00.608Z,60.40
2023-01-21T02:16:49.233Z,75.30
2023-01-21T02:19:41.271Z,59.30
2023-01-21T02:22:17.515Z,65.30
2023-01-21T02:25:27.372Z,55.30
2023-01-21T02:28:15.329Z,63.40
2023-01-21T02:31:13.282Z,58.80
2023-01-21T02:33:55.616Z,66.20
2023-01-21T02:36:54.211Z,69.60
2023-01-21T02:39:33.809Z,59.40
2023-01-21T02:42:09.879Z,55.40
2023-01-21T02:44:41.834Z,51.40
2023-01-21T02:47:19.019Z,54.00
2023-01-21T02:49:52.112Z,47.20
2023-01-21T02:52:22.089Z,47.40
2023-01-21T02:54:53.563Z,49.20
2023-01-21T02:57:42.700Z,43.80
2023-01-21T03:00:17.703Z,51.00
2023-01-21T03:03:35.351Z,46.40
2023-01-21T03:06:29.532Z,43.00
2023-01-21T03:09:04.193Z,48.90
2023-01-21T03:11:33.234Z,46.70
2023-01-21T03:14:32.641Z,46.20
2023-01-21T03:17:08.812Z,42.10
2023-01-21T03:19:41.940Z,43.20
2023-01-21T03:22:14.617Z,48.20
2023-01-21T03:27:16.249Z,45.30
2023-01-21T03:29:46.658Z,56.60
2023-01-21T03:32:18.778Z,45.00
2023-01-21T03:34:51.351Z,52.60
2023-01-21T03:37:27.552Z,58.90
2023-01-21T03:40:04.804Z,45.20
2023-01-21T03:42:33.286Z,50.00
2023-01-21T03:45:02.379Z,53.90
2023-01-21T03:47:34.267Z,39.80
2023-01-21T03:50:08.156Z,45.50
2023-01-21T03:52:39.859Z,48.20
2023-01-21T03:55:10.458Z,44.10
2023-01-21T03:57:39.501Z,43.20
2023-01-21T04:00:12.656Z,55.10
2023-01-21T04:02:40.957Z,45.20
2023-01-21T04:05:10.724Z,47.40
2023-01-21T04:07:39.014Z,49.10
2023-01-21T04:10:11.051Z,39.50
2023-01-21T04:12:40.002Z,41.50
2023-01-21T04:15:11.111Z,42.30
2023-01-21T04:17:39.535Z,40.40
2023-01-21T04:20:11.003Z,42.80
2023-01-21T04:22:39.335Z,39.00
2023-01-21T04:25:08.367Z,36.70
2023-01-21T04:27:36.685Z,38.70
2023-01-21T04:30:07.788Z,36.50
2023-01-21T04:32:36.941Z,34.60
2023-01-21T04:35:06.988Z,45.80
2023-01-21T04:37:35.313Z,35.20
2023-01-21T04:40:04.671Z,38.70
2023-01-21T04:42:33.205Z,44.30
2023-01-21T04:45:01.594Z,43.50
2023-01-21T04:47:29.936Z,36.20
2023-01-21T04:49:58.305Z,38.50
2023-01-21T04:52:26.587Z,35.50
2023-01-21T04:54:54.855Z,36.80
2023-01-21T04:57:23.240Z,42.30
2023-01-21T04:59:51.538Z,40.40
2023-01-21T05:02:19.876Z,46.30
2023-01-21T05:04:48.295Z,36.00
2023-01-21T05:07:16.657Z,34.60
2023-01-21T05:09:44.993Z,40.50
2023-01-21T05:12:13.407Z,41.00
2023-01-21T05:14:41.911Z,37.60
2023-01-21T05:17:10.244Z,37.60
2023-01-21T05:19:38.580Z,41.80
2023-01-21T05:22:07.000Z,37.40
2023-01-21T05:24:35.302Z,36.00
2023-01-21T05:27:03.766Z,40.70
2023-01-21T05:29:32.148Z,36.40
2023-01-21T05:32:00.502Z,42.80
2023-01-21T05:34:28.960Z,44.10
2023-01-21T05:36:57.314Z,44.90
2023-01-21T05:39:25.710Z,33.70
2023-01-21T05:41:54.073Z,33.40
2023-01-21T05:44:22.485Z,36.50
2023-01-21T05:46:50.841Z,33.70
2023-01-21T05:49:19.425Z,37.20
2023-01-21T05:51:47.716Z,36.30
2023-01-21T05:54:16.301Z,33.90
2023-01-21T05:56:44.632Z,32.70
2023-01-21T05:59:13.189Z,29.60
2023-01-21T06:01:41.587Z,29.90
2023-01-21T06:04:09.882Z,30.60
2023-01-21T06:06:39.941Z,34.80
2023-01-21T06:09:08.777Z,24.60
2023-01-21T06:11:37.188Z,35.00
2023-01-21T06:14:05.571Z,29.80
2023-01-21T06:16:33.766Z,30.70
2023-01-21T06:19:02.075Z,38.70
2023-01-21T06:21:30.953Z,27.70
2023-01-21T06:24:00.038Z,30.10
2023-01-21T06:26:28.328Z,32.60
2023-01-21T06:28:56.995Z,39.10
2023-01-21T06:31:25.961Z,29.20
2023-01-21T06:33:54.677Z,26.50
2023-01-21T06:36:23.192Z,29.80
2023-01-21T06:38:51.520Z,33.80
2023-01-21T06:41:20.073Z,24.20
2023-01-21T06:43:48.456Z,28.00
2023-01-21T06:46:16.941Z,27.70
2023-01-21T06:48:45.397Z,30.10
2023-01-21T06:51:13.682Z,26.40
2023-01-21T06:53:42.215Z,26.10
2023-01-21T06:56:10.519Z,24.20
2023-01-21T06:58:39.269Z,25.30
2023-01-21T07:01:07.756Z,28.30
2023-01-21T07:03:36.128Z,26.80
2023-01-21T07:06:05.028Z,29.10
2023-01-21T07:08:33.837Z,27.70
2023-01-21T07:11:02.293Z,24.90
2023-01-21T07:13:30.516Z,21.60
2023-01-21T07:16:01.093Z,21.80
2023-01-21T07:18:29.737Z,25.60
2023-01-21T07:20:58.125Z,22.10
2023-01-21T07:23:26.580Z,24.50
2023-01-21T07:25:55.025Z,26.40
2023-01-21T07:28:23.384Z,26.10
2023-01-21T07:30:52.065Z,25.40
2023-01-21T07:33:20.823Z,18.60
2023-01-21T07:35:49.363Z,19.00
2023-01-21T07:38:18.124Z,24.20
2023-01-21T07:40:49.447Z,24.10
2023-01-21T07:43:18.978Z,26.00
2023-01-21T07:45:48.051Z,20.00
2023-01-21T07:48:17.045Z,26.40
2023-01-21T07:50:45.481Z,28.80
2023-01-21T07:53:14.011Z,15.60
2023-01-21T07:55:42.895Z,20.40
2023-01-21T07:58:11.253Z,20.90
2023-01-21T08:00:39.733Z,25.90
2023-01-21T08:03:08.481Z,23.60
2023-01-21T08:05:37.117Z,21.00
2023-01-21T08:08:05.650Z,19.20
2023-01-21T08:10:33.795Z,20.70
2023-01-21T08:13:03.111Z,18.60
2023-01-21T08:15:31.866Z,20.00
2023-01-21T08:18:00.451Z,16.80
2023-01-21T08:20:28.898Z,23.20
2023-01-21T08:23:00.904Z,18.30
2023-01-21T08:25:29.165Z,15.90
2023-01-21T08:27:59.355Z,15.80
2023-01-21T08:30:28.104Z,16.90
2023-01-21T08:32:56.676Z,23.50
2023-01-21T08:35:25.168Z,16.80
2023-01-21T08:37:56.673Z,21.30
2023-01-21T08:40:26.520Z,22.60
2023-01-21T08:42:58.892Z,20.10
2023-01-21T08:45:28.533Z,23.30
2023-01-21T08:47:57.260Z,19.90
2023-01-21T08:50:25.977Z,20.40
2023-01-21T08:52:55.966Z,24.90
2023-01-21T08:55:26.100Z,17.00
2023-01-21T08:57:55.144Z,17.60
2023-01-21T09:00:23.903Z,25.30
2023-01-21T09:02:53.259Z,18.30
2023-01-21T09:05:21.899Z,19.00
2023-01-21T09:07:50.398Z,23.00
2023-01-21T09:10:34.170Z,14.60
2023-01-21T09:13:05.328Z,15.10
2023-01-21T09:15:38.509Z,12.60
2023-01-21T09:18:07.092Z,15.60
2023-01-21T09:20:35.615Z,20.50
2023-01-21T09:23:23.378Z,15.60
2023-01-21T09:25:52.121Z,18.20
2023-01-21T09:28:22.465Z,15.70
2023-01-21T09:30:57.389Z,16.10
2023-01-21T09:33:26.812Z,20.00
2023-01-21T09:35:57.712Z,18.30
2023-01-21T09:38:29.624Z,20.40
2023-01-21T09:41:05.539Z,15.70
2023-01-21T09:43:42.377Z,18.60
2023-01-21T09:46:17.876Z,12.30
2023-01-21T09:48:49.560Z,16.40
2023-01-21T09:51:26.279Z,23.70
2023-01-21T09:53:59.015Z,11.50
2023-01-21T09:56:35.754Z,18.00
2023-01-21T09:59:15.779Z,16.30
2023-01-21T10:01:46.938Z,19.80
2023-01-21T10:04:34.419Z,17.00
2023-01-21T10:07:23.197Z,19.20
2023-01-21T10:10:01.342Z,25.10
2023-01-21T10:12:50.682Z,20.50
2023-01-21T10:15:45.254Z,17.80
2023-01-21T10:18:19.855Z,16.30
2023-01-21T10:20:55.757Z,14.10
2023-01-21T10:23:31.085Z,16.40
2023-01-21T10:26:07.463Z,15.10
2023-01-21T10:28:41.022Z,20.30
2023-01-21T10:31:20.598Z,14.70
2023-01-21T10:33:50.855Z,16.10
2023-01-21T10:36:42.573Z,16.40
2023-01-21T10:39:24.004Z,15.30
2023-01-21T10:42:25.889Z,18.40
2023-01-21T10:45:01.781Z,14.30
2023-01-21T10:47:37.800Z,15.00
2023-01-21T10:50:25.092Z,15.00
2023-01-21T10:53:02.136Z,16.20
2023-01-21T10:55:45.708Z,15.10
2023-01-21T10:58:25.098Z,12.80
2023-01-21T11:00:58.553Z,18.50
2023-01-21T11:03:38.091Z,19.20
2023-01-21T11:06:10.445Z,20.70
2023-01-21T11:08:43.685Z,19.90
2023-01-21T11:11:15.307Z,26.50
2023-01-21T11:13:45.290Z,25.80
2023-01-21T11:16:33.139Z,20.00
2023-01-21T11:19:03.169Z,30.40
2023-01-21T11:21:32.037Z,22.90
2023-01-21T11:24:02.960Z,20.40
2023-01-21T11:26:34.050Z,16.20
2023-01-21T11:29:12.416Z,20.10
2023-01-21T11:31:43.523Z,18.90
2023-01-21T11:34:15.217Z,17.80
2023-01-21T11:37:01.899Z,12.40
2023-01-21T11:39:32.990Z,19.80
2023-01-21T11:42:07.317Z,24.50
2023-01-21T11:44:36.232Z,20.10
2023-01-21T11:47:30.171Z,16.20
2023-01-21T11:50:10.836Z,16.00
2023-01-21T11:52:39.297Z,11.80
2023-01-21T11:55:20.646Z,8.40
2023-01-21T11:57:55.958Z,10.40
2023-01-21T12:00:27.139Z,10.90
2023-01-21T12:03:01.204Z,10.80
2023-01-21T12:05:34.179Z,9.00
2023-01-21T12:08:06.302Z,13.10
2023-01-21T12:10:42.545Z,10.90
2023-01-21T12:13:21.147Z,6.90
2023-01-21T12:16:18.367Z,7.10
2023-01-21T12:19:15.920Z,7.30
2023-01-21T12:22:00.060Z,7.40
2023-01-21T12:24:42.601Z,7.90
2023-01-21T12:27:23.722Z,9.60
2023-01-21T12:30:07.183Z,15.20
2023-01-21T12:32:42.249Z,14.60
2023-01-21T12:35:16.282Z,14.20
2023-01-21T12:37:50.574Z,16.30
2023-01-21T12:40:24.074Z,16.00
2023-01-21T12:42:57.213Z,20.60
2023-01-21T12:45:32.094Z,16.50
2023-01-21T12:48:04.487Z,16.40
2023-01-21T12:50:38.777Z,18.00
2023-01-21T12:53:18.025Z,16.40
2023-01-21T12:56:13.994Z,17.50
2023-01-21T12:58:48.734Z,19.10
2023-01-21T13:01:30.193Z,13.00
2023-01-21T13:04:06.629Z,10.50
2023-01-21T13:06:53.080Z,20.00
2023-01-21T13:09:35.273Z,20.20
2023-01-21T13:12:12.521Z,19.50
2023-01-21T13:14:46.758Z,17.80
2023-01-21T13:17:21.341Z,21.50
2023-01-21T13:19:50.018Z,14.90
2023-01-21T13:22:29.210Z,11.30
2023-01-21T13:25:12.282Z,11.70
2023-01-21T13:30:26.187Z,11.70
2023-01-21T13:33:05.537Z,15.00
2023-01-21T13:35:43.913Z,10.00
2023-01-21T13:38:24.513Z,6.90
2023-01-21T13:41:00.043Z,7.90
2023-01-21T13:43:53.764Z,5.60
2023-01-21T13:46:39.504Z,6.60
2023-01-21T13:49:49.210Z,28.50
2023-01-21T13:52:24.538Z,11.70
2023-01-21T13:55:06.922Z,11.00
2023-01-21T13:58:01.022Z,12.90
2023-01-21T14:00:36.755Z,10.10
2023-01-21T14:03:17.620Z,8.90
2023-01-21T14:05:54.573Z,22.30
2023-01-21T14:08:28.959Z,39.70
2023-01-21T14:11:01.077Z,35.20
2023-01-21T14:14:15.838Z,13.50
2023-01-21T14:17:06.729Z,11.10
2023-01-21T14:19:55.293Z,11.30
2023-01-21T14:22:43.903Z,8.30
2023-01-21T14:25:23.124Z,10.40
2023-01-21T14:28:02.405Z,8.20
2023-01-21T14:30:39.550Z,9.50
2023-01-21T14:33:15.116Z,10.30
2023-01-21T14:35:48.699Z,10.20
2023-01-21T14:38:25.676Z,19.00
2023-01-21T14:41:06.782Z,17.70
2023-01-21T14:43:50.885Z,15.00
2023-01-21T14:46:29.145Z,15.50
2023-01-21T14:49:05.778Z,13.50
2023-01-21T14:51:36.959Z,15.50
2023-01-21T14:54:13.636Z,19.60
2023-01-21T14:56:53.058Z,11.30
2023-01-21T14:59:34.145Z,8.00
2023-01-21T15:02:18.046Z,7.10
2023-01-21T15:04:54.381Z,11.30
2023-01-21T15:07:28.091Z,8.20
2023-01-21T15:09:59.887Z,8.40
2023-01-21T15:12:31.287Z,9.70
2023-01-21T15:15:02.301Z,10.20
2023-01-21T15:18:03.178Z,7.20
2023-01-21T15:20:49.975Z,7.80
2023-01-21T15:23:35.425Z,9.00
2023-01-21T15:26:19.590Z,6.90
2023-01-21T15:28:51.249Z,9.40
2023-01-21T15:31:42.129Z,8.70
2023-01-21T15:34:15.926Z,9.40
2023-01-21T15:36:46.548Z,9.30
2023-01-21T15:39:17.209Z,8.20
2023-01-21T15:41:59.627Z,10.90
2023-01-21T15:44:42.061Z,8.50
2023-01-21T15:47:28.108Z,11.30
2023-01-21T15:50:03.467Z,11.70
2023-01-21T15:52:47.501Z,9.90
2023-01-21T15:55:28.224Z,10.80
2023-01-21T15:58:08.555Z,8.10
2023-01-21T16:00:46.689Z,23.90
2023-01-21T16:03:23.251Z,27.00
2023-01-21T16:06:01.031Z,20.00
2023-01-21T16:08:46.394Z,34.40
2023-01-21T16:11:28.487Z,33.60
2023-01-21T16:14:08.273Z,34.10
2023-01-21T16:16:50.688Z,17.80
2023-01-21T16:19:24.248Z,18.10
2023-01-21T16:21:57.180Z,18.70
2023-01-21T16:27:15.867Z,16.40
2023-01-21T16:29:45.085Z,16.10
2023-01-21T16:32:21.106Z,11.20
2023-01-21T16:34:52.197Z,10.80
2023-01-21T16:37:25.238Z,13.90
2023-01-21T16:39:56.665Z,11.30
2023-01-21T16:42:33.485Z,14.30
2023-01-21T16:45:08.697Z,12.60
2023-01-21T16:47:37.369Z,9.80
2023-01-21T16:50:18.983Z,14.40
2023-01-21T16:52:48.169Z,11.00
2023-01-21T16:55:22.204Z,10.10
2023-01-21T16:57:52.171Z,11.20
2023-01-21T17:00:25.718Z,9.30
2023-01-21T17:02:55.505Z,11.30
2023-01-21T17:05:27.048Z,13.10
2023-01-21T17:07:59.268Z,12.40
2023-01-21T17:10:33.232Z,12.60
2023-01-21T17:13:04.781Z,14.20
2023-01-21T17:15:37.684Z,13.20
2023-01-21T17:18:18.139Z,12.40
2023-01-21T17:20:49.252Z,11.00
2023-01-21T17:23:21.150Z,11.30
2023-01-21T17:25:56.688Z,15.50
2023-01-21T17:28:30.741Z,19.90
2023-01-21T17:31:23.080Z,21.80
2023-01-21T17:34:06.700Z,12.90
2023-01-21T17:36:37.701Z,21.40
2023-01-21T17:39:08.088Z,21.30
2023-01-21T17:41:40.398Z,24.90
2023-01-21T17:46:46.870Z,20.90
2023-01-21T17:49:19.968Z,20.50
2023-01-21T17:51:49.856Z,12.60
2023-01-21T17:54:21.813Z,13.30
2023-01-21T17:56:52.213Z,13.60
2023-01-21T17:59:34.602Z,12.00
2023-01-21T18:02:06.293Z,10.30
2023-01-21T18:04:35.279Z,13.50
2023-01-21T18:07:15.622Z,14.00
2023-01-21T18:09:44.634Z,13.50
2023-01-21T18:12:13.667Z,13.80
2023-01-21T18:14:43.228Z,12.70
2023-01-21T18:17:16.939Z,13.50
2023-01-21T18:19:46.523Z,12.70
2023-01-21T18:22:23.543Z,13.00
2023-01-21T18:24:52.755Z,14.00
2023-01-21T18:27:25.847Z,12.00
2023-01-21T18:29:57.219Z,12.20
2023-01-21T18:32:26.324Z,13.70
2023-01-21T18:34:56.336Z,11.90
2023-01-21T18:37:27.570Z,13.40
2023-01-21T18:39:58.018Z,14.60
2023-01-21T18:42:27.903Z,13.40
2023-01-21T18:44:57.227Z,12.30
2023-01-21T18:47:29.512Z,13.70
2023-01-21T18:50:02.998Z,14.10
2023-01-21T18:52:33.259Z,17.00
2023-01-21T18:55:02.334Z,14.50
2023-01-21T18:57:31.093Z,29.10
2023-01-21T18:59:59.742Z,38.90
2023-01-21T19:02:28.507Z,49.60
2023-01-21T19:04:57.028Z,29.50
2023-01-21T19:07:25.377Z,16.20
2023-01-21T19:09:54.971Z,21.70
2023-01-21T19:12:26.006Z,20.50
2023-01-21T19:14:57.787Z,16.90
2023-01-21T19:17:30.562Z,15.60
2023-01-21T19:22:26.915Z,15.50
2023-01-21T19:24:55.996Z,18.00
2023-01-21T19:27:28.518Z,14.90
2023-01-21T19:29:57.675Z,13.10
2023-01-21T19:32:26.211Z,13.10
2023-01-21T19:34:57.027Z,13.10
2023-01-21T19:37:25.762Z,11.90
2023-01-21T19:39:54.300Z,11.60
2023-01-21T19:42:22.667Z,10.50
2023-01-21T19:44:51.545Z,13.30
2023-01-21T19:47:24.984Z,12.00
2023-01-21T19:49:53.447Z,12.90
2023-01-21T19:52:22.115Z,12.90
2023-01-21T19:54:50.566Z,12.80
2023-01-21T19:57:19.400Z,10.40
2023-01-21T19:59:49.835Z,10.60
2023-01-21T20:02:18.483Z,10.70
2023-01-21T20:04:47.025Z,11.20
2023-01-21T20:07:22.635Z,11.70
2023-01-21T20:09:52.809Z,11.80
2023-01-21T20:12:21.046Z,10.00
2023-01-21T20:14:49.512Z,12.20
2023-01-21T20:17:18.621Z,10.10
2023-01-21T20:19:47.158Z,14.20
2023-01-21T20:22:15.430Z,12.00
2023-01-21T20:24:44.018Z,11.20
2023-01-21T20:27:15.100Z,10.10
2023-01-21T20:29:55.693Z,13.70
2023-01-21T20:32:31.257Z,11.90
2023-01-21T20:35:02.637Z,12.60
2023-01-21T20:37:31.166Z,14.10
2023-01-21T20:39:59.842Z,14.00
2023-01-21T20:42:28.655Z,13.50
2023-01-21T20:44:57.103Z,12.90
2023-01-21T20:47:37.865Z,10.50
2023-01-21T20:50:17.738Z,13.60
2023-01-21T20:52:46.353Z,10.10
2023-01-21T20:55:20.568Z,12.20
2023-01-21T20:57:49.565Z,9.10
2023-01-21T21:00:21.565Z,13.30
2023-01-21T21:02:50.408Z,9.40
2023-01-21T21:05:19.727Z,13.30
2023-01-21T21:07:48.543Z,12.20
2023-01-21T21:10:21.974Z,10.30
2023-01-21T21:12:51.320Z,19.30
2023-01-21T21:15:20.735Z,32.50
2023-01-21T21:17:49.189Z,20.90
2023-01-21T21:20:20.742Z,26.90
2023-01-21T21:22:49.409Z,24.60
2023-01-21T21:25:20.690Z,18.20
2023-01-21T21:27:50.228Z,27.10
2023-01-21T21:30:21.117Z,22.40
2023-01-21T21:32:49.623Z,23.90
2023-01-21T21:35:26.120Z,30.50
2023-01-21T21:38:00.213Z,20.70
2023-01-21T21:40:29.182Z,19.20
2023-01-21T21:43:16.588Z,17.10
2023-01-21T21:46:00.046Z,19.00
2023-01-21T21:48:38.679Z,18.70
2023-01-21T21:51:09.443Z,23.40
2023-01-21T21:53:38.982Z,15.00
2023-01-21T21:56:09.812Z,19.80
2023-01-21T21:58:38.178Z,15.90
2023-01-21T22:01:11.964Z,19.40
2023-01-21T22:03:40.832Z,14.40
2023-01-21T22:06:10.811Z,15.50
2023-01-21T22:08:41.571Z,14.60
2023-01-21T22:11:14.371Z,17.20
2023-01-21T22:13:49.881Z,16.60
2023-01-21T22:16:20.822Z,16.50
2023-01-21T22:18:49.944Z,10.70
2023-01-21T22:21:20.800Z,13.70
2023-01-21T22:23:50.595Z,16.20
2023-01-21T22:26:21.014Z,14.00
2023-01-21T22:28:50.907Z,13.70
2023-01-21T22:31:21.515Z,19.30
2023-01-21T22:33:51.313Z,16.10
2023-01-21T22:36:22.042Z,13.90
2023-01-21T22:38:51.787Z,13.60
2023-01-21T22:41:22.781Z,14.90
2023-01-21T22:43:52.033Z,14.40
2023-01-21T22:46:23.841Z,16.70
2023-01-21T22:48:53.903Z,12.20
2023-01-21T22:51:23.441Z,17.20
2023-01-21T22:53:52.500Z,13.30
2023-01-21T22:56:31.419Z,16.10
2023-01-21T22:59:08.605Z,15.60
2023-01-21T23:01:37.426Z,15.30
2023-01-21T23:04:06.005Z,13.40
2023-01-21T23:06:36.813Z,14.50
2023-01-21T23:09:09.183Z,13.10
2023-01-21T23:11:40.837Z,16.80
2023-01-21T23:14:10.298Z,19.70
2023-01-21T23:16:39.340Z,12.70
2023-01-21T23:19:07.941Z,16.50
2023-01-21T23:21:37.621Z,14.90
2023-01-21T23:24:07.476Z,13.30
2023-01-21T23:26:36.544Z,18.10
2023-01-21T23:29:04.946Z,17.40
2023-01-21T23:31:33.921Z,16.20
2023-01-21T23:34:02.898Z,13.00
2023-01-21T23:36:31.859Z,17.90
2023-01-21T23:39:00.857Z,14.70
2023-01-21T23:41:29.461Z,14.50
2023-01-21T23:44:00.056Z,14.80
2023-01-21T23:46:28.600Z,15.50
2023-01-21T23:48:57.021Z,16.20
2023-01-21T23:51:25.699Z,17.10
2023-01-21T23:53:55.646Z,14.20
2023-01-21T23:56:26.717Z,15.40
2023-01-21T23:58:55.456Z,15.10
